createdAt,value
2018-11-13T00:02:11.218Z,101715.22
2018-11-13T00:04:41.198Z,101705.09
2018-11-13T00:07:10.957Z,101702.17
2018-11-13T00:09:40.720Z,101686.95
2018-11-13T00:12:10.658Z,101672.00
2018-11-13T00:14:40.515Z,101671.72
2018-11-13T00:17:10.828Z,101666.95
2018-11-13T00:19:41.411Z,101664.83
2018-11-13T00:22:11.382Z,101662.91
2018-11-13T00:24:41.475Z,101669.58
2018-11-13T00:27:11.313Z,101666.38
2018-11-13T00:29:41.036Z,101662.14
2018-11-13T00:32:10.906Z,101656.23
2018-11-13T00:34:40.783Z,101657.59
2018-11-13T00:37:10.672Z,101658.36
2018-11-13T00:39:40.479Z,101663.71
2018-11-13T00:42:10.175Z,101666.37
2018-11-13T00:44:40.046Z,101670.92
2018-11-13T00:47:09.777Z,101672.52
2018-11-13T00:49:39.478Z,101673.86
2018-11-13T00:52:09.299Z,101673.86
2018-11-13T00:54:39.252Z,101668.78
2018-11-13T00:57:09.010Z,101657.84
2018-11-13T00:59:38.778Z,101645.30
2018-11-13T01:02:08.813Z,101645.31
2018-11-13T01:04:38.561Z,101648.25
2018-11-13T01:07:08.387Z,101651.69
2018-11-13T01:09:38.274Z,101661.56
2018-11-13T01:12:08.209Z,101661.58
2018-11-13T01:14:37.991Z,101656.23
2018-11-13T01:17:07.821Z,101661.58
2018-11-13T01:19:37.546Z,101671.70
2018-11-13T01:22:09.126Z,101683.70
2018-11-13T01:24:38.918Z,101694.91
2018-11-13T01:27:09.437Z,101696.75
2018-11-13T01:29:39.296Z,101711.70
2018-11-13T01:32:09.203Z,101717.28
2018-11-13T01:34:38.919Z,101720.23
2018-11-13T01:37:09.815Z,101728.21
2018-11-13T01:39:39.731Z,101738.33
2018-11-13T01:42:09.647Z,101728.74
2018-11-13T01:44:39.460Z,101723.40
2018-11-13T01:47:09.531Z,101714.34
2018-11-13T01:49:40.182Z,101705.02
2018-11-13T01:52:09.511Z,101707.13
2018-11-13T01:54:39.410Z,101708.20
2018-11-13T01:57:09.339Z,101705.02
2018-11-13T01:59:39.128Z,101693.55
2018-11-13T02:02:09.210Z,101694.08
2018-11-13T02:04:39.001Z,101695.70
2018-11-13T02:07:09.082Z,101693.30
2018-11-13T02:09:39.110Z,101691.41
2018-11-13T02:12:08.929Z,101690.89
2018-11-13T02:14:38.742Z,101699.42
2018-11-13T02:17:08.857Z,101702.62
2018-11-13T02:19:38.666Z,101703.16
2018-11-13T02:22:08.475Z,101715.14
2018-11-13T02:24:38.238Z,101712.48
2018-11-13T02:27:08.355Z,101714.89
2018-11-13T02:29:38.163Z,101720.22
2018-11-13T02:32:08.038Z,101716.22
2018-11-13T02:34:37.931Z,101710.33
2018-11-13T02:37:08.037Z,101698.88
2018-11-13T02:39:37.756Z,101705.27
2018-11-13T02:42:07.921Z,101710.34
2018-11-13T02:44:37.716Z,101715.68
2018-11-13T02:47:07.413Z,101700.73
2018-11-13T02:49:37.503Z,101682.89
2018-11-13T02:52:07.458Z,101681.55
2018-11-13T02:54:37.126Z,101681.01
2018-11-13T02:57:06.970Z,101698.06
2018-11-13T02:59:36.928Z,101706.89
2018-11-13T03:02:07.929Z,101689.02
2018-11-13T03:04:37.924Z,101673.55
2018-11-13T03:07:07.695Z,101671.67
2018-11-13T03:09:37.597Z,101670.89
2018-11-13T03:12:07.543Z,101668.21
2018-11-13T03:14:37.401Z,101683.12
2018-11-13T03:17:07.531Z,101684.45
2018-11-13T03:19:37.427Z,101689.55
2018-11-13T03:22:07.298Z,101694.61
2018-11-13T03:24:37.199Z,101701.79
2018-11-13T03:27:07.080Z,101707.11
2018-11-13T03:29:36.815Z,101716.73
2018-11-13T03:32:06.913Z,101717.80
2018-11-13T03:34:36.626Z,101727.41
2018-11-13T03:37:06.846Z,101726.09
2018-11-13T03:39:36.511Z,101713.84
2018-11-13T03:42:06.720Z,101726.91
2018-11-13T03:44:36.570Z,101730.09
2018-11-13T03:47:06.927Z,101729.05
2018-11-13T03:49:36.715Z,101717.86
2018-11-13T03:52:06.619Z,101721.84
2018-11-13T03:54:36.334Z,101700.24
2018-11-13T03:57:06.045Z,101704.55
2018-11-13T03:59:35.824Z,101716.56
2018-11-13T04:02:05.923Z,101729.35
2018-11-13T04:04:35.669Z,101733.35
2018-11-13T04:07:05.537Z,101722.44
2018-11-13T04:09:35.318Z,101722.98
2018-11-13T04:12:06.077Z,101737.92
2018-11-13T04:14:35.901Z,101733.92
2018-11-13T04:17:06.228Z,101730.44
2018-11-13T04:19:35.961Z,101723.80
2018-11-13T04:22:06.186Z,101729.91
2018-11-13T04:24:36.109Z,101718.45
2018-11-13T04:27:05.879Z,101710.19
2018-11-13T04:29:35.602Z,101712.31
2018-11-13T04:32:05.678Z,101724.30
2018-11-13T04:34:35.482Z,101728.56
2018-11-13T04:37:05.422Z,101720.83
2018-11-13T04:39:35.121Z,101709.09
2018-11-13T04:42:07.105Z,101715.50
2018-11-13T04:44:36.881Z,101726.42
2018-11-13T04:47:07.178Z,101725.89
2018-11-13T04:49:36.828Z,101725.10
2018-11-13T04:52:07.178Z,101741.09
2018-11-13T04:54:37.070Z,101749.66
2018-11-13T04:57:07.919Z,101746.44
2018-11-13T04:59:37.701Z,101747.22
2018-11-13T05:02:07.478Z,101755.49
2018-11-13T05:04:37.490Z,101749.34
2018-11-13T05:07:07.321Z,101761.04
2018-11-13T05:09:37.241Z,101759.97
2018-11-13T05:12:07.283Z,101754.37
2018-11-13T05:14:36.996Z,101756.22
2018-11-13T05:17:06.986Z,101762.36
2018-11-13T05:19:36.767Z,101769.56
2018-11-13T05:22:07.687Z,101770.89
2018-11-13T05:24:37.584Z,101766.59
2018-11-13T05:27:07.719Z,101770.31
2018-11-13T05:29:37.395Z,101774.59
2018-11-13T05:32:07.150Z,101774.33
2018-11-13T05:34:37.002Z,101772.19
2018-11-13T05:37:06.711Z,101786.57
2018-11-13T05:39:36.562Z,101790.83
2018-11-13T05:42:06.743Z,101790.55
2018-11-13T05:44:36.507Z,101786.27
2018-11-13T05:47:06.775Z,101791.88
2018-11-13T05:49:36.486Z,101791.05
2018-11-13T05:52:06.692Z,101793.69
2018-11-13T05:54:36.457Z,101800.88
2018-11-13T05:57:06.175Z,101801.42
2018-11-13T05:59:35.969Z,101810.75
2018-11-13T06:02:06.390Z,101807.52
2018-11-13T06:04:36.146Z,101804.83
2018-11-13T06:07:05.938Z,101811.77
2018-11-13T06:09:35.802Z,101818.95
2018-11-13T06:12:06.898Z,101818.67
2018-11-13T06:14:36.669Z,101820.55
2018-11-13T06:17:06.794Z,101816.30
2018-11-13T06:19:36.563Z,101820.55
2018-11-13T06:22:07.125Z,101812.33
2018-11-13T06:24:36.886Z,101821.66
2018-11-13T06:27:06.927Z,101835.20
2018-11-13T06:29:36.680Z,101834.39
2018-11-13T06:32:08.385Z,101837.88
2018-11-13T06:34:38.319Z,101834.39
2018-11-13T06:37:08.206Z,101841.61
2018-11-13T06:39:37.935Z,101844.85
2018-11-13T06:42:07.747Z,101849.69
2018-11-13T06:44:37.527Z,101863.93
2018-11-13T06:47:07.626Z,101873.58
2018-11-13T06:49:37.435Z,101871.71
2018-11-13T06:52:07.143Z,101882.17
2018-11-13T06:55:18.054Z,101881.65
2018-11-13T06:57:47.888Z,101891.53
2018-11-13T07:00:17.734Z,101901.94
2018-11-13T07:02:47.920Z,101899.33
2018-11-13T07:05:18.525Z,101903.09
2018-11-13T07:07:48.681Z,101900.95
2018-11-13T07:10:20.297Z,101906.31
2018-11-13T07:12:51.023Z,101906.84
2018-11-13T07:15:24.503Z,101904.46
2018-11-13T07:17:56.328Z,101914.05
2018-11-13T07:20:27.772Z,101922.05
2018-11-13T07:22:59.555Z,101932.48
2018-11-13T07:25:29.555Z,101935.95
2018-11-13T07:27:59.860Z,101933.25
2018-11-13T07:30:29.842Z,101930.34
2018-11-13T07:32:59.751Z,101941.55
2018-11-13T07:35:29.732Z,101932.20
2018-11-13T07:38:00.416Z,101944.73
2018-11-13T07:40:30.246Z,101946.59
2018-11-13T07:42:59.941Z,101948.73
2018-11-13T07:45:29.751Z,101961.01
2018-11-13T07:47:59.578Z,101951.41
2018-11-13T07:50:29.302Z,101950.33
2018-11-13T07:52:59.024Z,101947.97
2018-11-13T07:55:28.748Z,101946.88
2018-11-13T07:57:58.550Z,101949.27
2018-11-13T08:00:28.398Z,101954.86
2018-11-13T08:03:07.882Z,101956.70
2018-11-13T08:05:37.735Z,101950.78
2018-11-13T08:08:07.925Z,101954.27
2018-11-13T08:10:37.654Z,101955.08
2018-11-13T08:13:07.672Z,101957.77
2018-11-13T08:15:37.437Z,101958.30
2018-11-13T08:18:07.288Z,101970.89
2018-11-13T08:20:36.998Z,101968.01
2018-11-13T08:23:06.891Z,101977.94
2018-11-13T08:25:36.873Z,101975.86
2018-11-13T08:28:07.018Z,101975.87
2018-11-13T08:30:36.682Z,101971.62
2018-11-13T08:33:07.137Z,101974.02
2018-11-13T08:35:36.986Z,101983.14
2018-11-13T08:38:07.059Z,101983.66
2018-11-13T08:40:36.769Z,101991.19
2018-11-13T08:43:06.855Z,101990.38
2018-11-13T08:45:36.718Z,101998.63
2018-11-13T08:48:06.750Z,102001.05
2018-11-13T08:50:36.993Z,102002.92
2018-11-13T08:53:07.214Z,101997.06
2018-11-13T08:55:37.239Z,102000.53
2018-11-13T08:58:07.320Z,102009.36
2018-11-13T09:00:37.912Z,102011.50
2018-11-13T09:03:07.842Z,102018.45
2018-11-13T09:05:37.787Z,102020.88
2018-11-13T09:08:07.824Z,102018.75
2018-11-13T09:10:38.905Z,102006.95
2018-11-13T09:13:08.795Z,102018.47
2018-11-13T09:15:38.555Z,102006.71
2018-11-13T09:18:08.708Z,102017.67
2018-11-13T09:20:38.571Z,102019.81
2018-11-13T09:23:08.378Z,102016.87
2018-11-13T09:25:38.284Z,102013.70
2018-11-13T09:28:08.074Z,102019.84
2018-11-13T09:30:38.043Z,102018.52
2018-11-13T09:33:09.247Z,102017.17
2018-11-13T09:35:39.419Z,102020.40
2018-11-13T09:38:10.610Z,102015.03
2018-11-13T09:40:41.709Z,102014.53
2018-11-13T09:43:11.678Z,102019.84
2018-11-13T09:45:41.684Z,102020.39
2018-11-13T09:48:11.492Z,102017.17
2018-11-13T09:50:41.707Z,102015.84
2018-11-13T09:53:11.649Z,102027.88
2018-11-13T09:55:41.564Z,102031.36
2018-11-13T09:58:11.403Z,102035.91
2018-11-13T10:00:41.486Z,102035.38
2018-11-13T10:03:11.974Z,102025.48
2018-11-13T10:05:42.311Z,102026.81
2018-11-13T10:08:11.917Z,102036.42
2018-11-13T10:10:41.965Z,102035.62
2018-11-13T10:13:11.654Z,102040.44
2018-11-13T10:15:41.707Z,102036.92
2018-11-13T10:18:11.552Z,102032.66
2018-11-13T10:20:41.230Z,102032.66
2018-11-13T10:23:11.162Z,102039.08
2018-11-13T10:25:40.987Z,102041.49
2018-11-13T10:28:10.969Z,102042.30
2018-11-13T10:30:40.571Z,102036.44
2018-11-13T10:33:10.287Z,102034.02
2018-11-13T10:35:40.066Z,102030.01
2018-11-13T10:38:10.644Z,102029.73
2018-11-13T10:40:40.520Z,102029.77
2018-11-13T10:43:10.340Z,102025.73
2018-11-13T10:45:40.166Z,102027.61
2018-11-13T10:48:09.892Z,102032.16
2018-11-13T10:50:39.623Z,102036.41
2018-11-13T10:53:09.546Z,102039.85
2018-11-13T10:55:39.304Z,102043.30
2018-11-13T10:58:09.138Z,102037.42
2018-11-13T11:00:44.113Z,102040.09
2018-11-13T11:03:19.399Z,102046.28
2018-11-13T11:05:49.326Z,102048.39
2018-11-13T11:08:19.227Z,102037.93
2018-11-13T11:10:49.090Z,102042.20
2018-11-13T11:13:19.145Z,102040.59
2018-11-13T11:15:48.974Z,102057.17
2018-11-13T11:18:18.719Z,102054.22
2018-11-13T11:20:48.550Z,102063.34
2018-11-13T11:23:18.359Z,102067.34
2018-11-13T11:25:48.340Z,102075.64
2018-11-13T11:28:18.224Z,102069.20
2018-11-13T11:30:48.028Z,102071.89
2018-11-13T11:33:17.779Z,102082.86
2018-11-13T11:35:47.690Z,102075.03
2018-11-13T11:38:17.559Z,102089.27
2018-11-13T11:40:47.371Z,102087.88
2018-11-13T11:43:17.282Z,102084.90
2018-11-13T11:45:47.063Z,102068.54
2018-11-13T11:48:16.776Z,102085.71
2018-11-13T11:50:46.514Z,102084.09
2018-11-13T11:53:16.389Z,102091.35
2018-11-13T11:55:46.147Z,102085.98
2018-11-13T11:58:16.035Z,102084.88
2018-11-13T12:00:45.933Z,102095.06
2018-11-13T12:03:15.574Z,102096.36
2018-11-13T12:05:45.371Z,102104.84
2018-11-13T12:08:15.214Z,102098.64
2018-11-13T12:10:44.918Z,102106.41
2018-11-13T12:13:14.694Z,102103.45
2018-11-13T12:15:44.468Z,102112.08
2018-11-13T12:18:14.446Z,102108.03
2018-11-13T12:20:44.239Z,102118.81
2018-11-13T12:23:13.895Z,102124.96
2018-11-13T12:25:43.815Z,102124.23
2018-11-13T12:30:57.732Z,102135.23
2018-11-13T12:33:27.536Z,102129.39
2018-11-13T12:35:57.366Z,102129.41
2018-11-13T12:38:27.297Z,102135.89
2018-11-13T12:40:57.157Z,102140.75
2018-11-13T12:43:26.908Z,102137.00
2018-11-13T12:45:56.757Z,102148.70
2018-11-13T12:48:26.599Z,102140.02
2018-11-13T12:50:58.415Z,102140.80
2018-11-13T12:53:28.136Z,102143.28
2018-11-13T12:55:58.829Z,102148.81
2018-11-13T12:58:28.691Z,102146.70
2018-11-13T13:00:59.078Z,102151.21
2018-11-13T13:03:32.862Z,102150.65
2018-11-13T13:06:02.694Z,102158.41
2018-11-13T13:08:32.696Z,102163.05
2018-11-13T13:11:02.538Z,102162.89
2018-11-13T13:13:33.060Z,102169.92
2018-11-13T13:16:02.981Z,102163.62
2018-11-13T13:18:32.920Z,102165.86
2018-11-13T13:21:03.827Z,102171.47
2018-11-13T13:23:34.387Z,102165.90
2018-11-13T13:26:05.299Z,102175.19
2018-11-13T13:28:35.027Z,102185.42
2018-11-13T13:31:07.677Z,102185.61
2018-11-13T13:33:38.019Z,102187.50
2018-11-13T13:36:07.860Z,102191.25
2018-11-13T13:38:38.564Z,102188.61
2018-11-13T13:41:08.343Z,102193.48
2018-11-13T13:43:38.472Z,102192.11
2018-11-13T13:46:08.261Z,102197.05
2018-11-13T13:48:38.110Z,102195.48
2018-11-13T13:51:07.955Z,102198.89
2018-11-13T13:53:37.787Z,102204.06
2018-11-13T13:56:07.588Z,102213.44
2018-11-13T13:58:37.371Z,102214.77
2018-11-13T14:01:07.630Z,102212.91
2018-11-13T14:03:37.381Z,102219.13
2018-11-13T14:06:07.321Z,102222.38
2018-11-13T14:08:37.270Z,102218.94
2018-11-13T14:11:07.035Z,102226.20
2018-11-13T14:13:36.742Z,102230.51
2018-11-13T14:16:06.978Z,102236.41
2018-11-13T14:18:37.078Z,102239.58
2018-11-13T14:21:07.658Z,102245.73
2018-11-13T14:23:37.446Z,102244.13
2018-11-13T14:26:07.361Z,102247.89
2018-11-13T14:28:37.267Z,102252.98
2018-11-13T14:31:07.451Z,102245.75
2018-11-13T14:33:37.190Z,102253.78
2018-11-13T14:36:07.943Z,102248.14
2018-11-13T14:38:37.883Z,102262.34
2018-11-13T14:41:07.925Z,102273.03
2018-11-13T14:43:37.693Z,102280.28
2018-11-13T14:46:07.868Z,102289.66
2018-11-13T14:48:37.613Z,102294.74
2018-11-13T14:51:07.692Z,102297.67
2018-11-13T14:53:37.557Z,102299.55
2018-11-13T14:56:07.865Z,102302.21
2018-11-13T14:58:37.858Z,102303.27
2018-11-13T15:01:08.173Z,102306.45
2018-11-13T15:03:38.027Z,102313.12
2018-11-13T15:06:08.042Z,102325.16
2018-11-13T15:08:37.818Z,102325.14
2018-11-13T15:11:07.730Z,102327.00
2018-11-13T15:13:37.475Z,102332.58
2018-11-13T15:16:07.534Z,102331.48
2018-11-13T15:18:37.511Z,102336.57
2018-11-13T15:21:07.696Z,102338.38
2018-11-13T15:23:37.448Z,102346.38
2018-11-13T15:26:07.919Z,102343.52
2018-11-13T15:28:37.891Z,102350.95
2018-11-13T15:31:08.406Z,102361.61
2018-11-13T15:33:38.259Z,102356.98
2018-11-13T15:36:08.062Z,102362.34
2018-11-13T15:38:37.964Z,102362.83
2018-11-13T15:41:08.088Z,102368.63
2018-11-13T15:43:38.017Z,102371.56
2018-11-13T15:46:07.996Z,102374.76
2018-11-13T15:48:37.780Z,102374.46
2018-11-13T15:51:09.159Z,102379.77
2018-11-13T15:53:37.815Z,102380.25
2018-11-13T15:56:08.060Z,102387.19
2018-11-13T15:58:37.983Z,102389.42
2018-11-13T16:01:08.529Z,102399.00
2018-11-13T16:03:39.986Z,102397.80
2018-11-13T16:06:10.176Z,102406.81
2018-11-13T16:08:40.168Z,102413.95
2018-11-13T16:11:09.923Z,102415.03
2018-11-13T16:13:39.834Z,102423.87
2018-11-13T16:16:09.552Z,102427.61
2018-11-13T16:18:40.462Z,102427.00
2018-11-13T16:21:10.512Z,102424.55
2018-11-13T16:23:40.493Z,102431.99
2018-11-13T16:26:10.385Z,102433.84
2018-11-13T16:28:40.798Z,102441.80
2018-11-13T16:31:10.696Z,102444.98
2018-11-13T16:33:41.286Z,102443.64
2018-11-13T16:36:11.152Z,102451.03
2018-11-13T16:38:41.513Z,102451.29
2018-11-13T16:41:10.797Z,102452.10
2018-11-13T16:43:40.641Z,102455.25
2018-11-13T16:46:10.475Z,102445.39
2018-11-13T16:48:40.261Z,102459.50
2018-11-13T16:51:10.193Z,102457.67
2018-11-13T16:53:45.311Z,102463.50
2018-11-13T16:56:15.061Z,102460.83
2018-11-13T16:58:45.161Z,102465.35
2018-11-13T17:01:15.075Z,102468.48
2018-11-13T17:03:45.190Z,102472.53
2018-11-13T17:06:15.079Z,102465.75
2018-11-13T17:08:44.864Z,102470.06
2018-11-13T17:11:15.000Z,102479.66
2018-11-13T17:13:45.604Z,102483.80
2018-11-13T17:16:15.630Z,102475.27
2018-11-13T17:18:45.508Z,102471.27
2018-11-13T17:21:15.528Z,102473.36
2018-11-13T17:23:47.141Z,102474.20
2018-11-13T17:26:17.274Z,102481.07
2018-11-13T17:28:47.127Z,102480.53
2018-11-13T17:31:17.003Z,102480.23
2018-11-13T17:33:46.668Z,102493.33
2018-11-13T17:36:16.635Z,102495.98
2018-11-13T17:38:46.470Z,102494.41
2018-11-13T17:41:16.338Z,102493.63
2018-11-13T17:43:46.495Z,102504.00
2018-11-13T17:46:16.274Z,102494.33
2018-11-13T17:48:46.321Z,102495.73
2018-11-13T17:51:16.092Z,102494.58
2018-11-13T17:53:45.936Z,102499.42
2018-11-13T17:56:15.819Z,102497.25
2018-11-13T17:58:45.619Z,102504.44
2018-11-13T18:01:15.667Z,102504.75
2018-11-13T18:03:45.551Z,102503.94
2018-11-13T18:06:15.337Z,102513.80
2018-11-13T18:08:45.167Z,102517.33
2018-11-13T18:11:15.026Z,102520.57
2018-11-13T18:13:44.787Z,102524.11
2018-11-13T18:16:14.642Z,102523.78
2018-11-13T18:18:44.493Z,102524.33
2018-11-13T18:21:14.632Z,102528.33
2018-11-13T18:23:44.436Z,102533.14
2018-11-13T18:26:14.199Z,102531.79
2018-11-13T18:28:44.231Z,102538.59
2018-11-13T18:31:14.055Z,102534.17
2018-11-13T18:33:44.158Z,102532.72
2018-11-13T18:36:14.326Z,102537.63
2018-11-13T18:38:44.573Z,102538.73
2018-11-13T18:41:14.481Z,102539.39
2018-11-13T18:43:44.749Z,102542.09
2018-11-13T18:46:14.920Z,102534.84
2018-11-13T18:48:45.554Z,102549.95
2018-11-13T18:51:15.907Z,102558.07
2018-11-13T18:53:46.202Z,102554.02
2018-11-13T18:56:16.173Z,102553.77
2018-11-13T18:58:46.900Z,102564.59
2018-11-13T19:01:16.929Z,102566.02
2018-11-13T19:03:48.239Z,102575.92
2018-11-13T19:06:18.255Z,102570.07
2018-11-13T19:08:48.899Z,102576.14
2018-11-13T19:11:18.828Z,102574.27
2018-11-13T19:13:48.947Z,102571.81
2018-11-13T19:16:18.999Z,102571.27
2018-11-13T19:18:49.208Z,102562.59
2018-11-13T19:21:18.851Z,102570.07
2018-11-13T19:23:48.982Z,102569.14
2018-11-13T19:26:18.701Z,102575.00
2018-11-13T19:28:48.503Z,102575.75
2018-11-13T19:31:18.329Z,102581.00
2018-11-13T19:33:49.175Z,102584.76
2018-11-13T19:36:19.075Z,102586.83
2018-11-13T19:38:49.018Z,102586.67
2018-11-13T19:41:18.986Z,102588.55
2018-11-13T19:43:48.959Z,102592.83
2018-11-13T19:46:18.902Z,102592.06
2018-11-13T19:48:48.816Z,102595.73
2018-11-13T19:51:18.823Z,102600.64
2018-11-13T19:53:48.738Z,102603.30
2018-11-13T19:56:18.639Z,102600.55
2018-11-13T19:58:48.652Z,102599.84
2018-11-13T20:01:18.562Z,102602.48
2018-11-13T20:03:49.152Z,102598.64
2018-11-13T20:06:18.975Z,102595.67
2018-11-13T20:08:48.818Z,102606.91
2018-11-13T20:11:19.212Z,102609.58
2018-11-13T20:13:48.896Z,102615.16
2018-11-13T20:16:18.701Z,102613.16
2018-11-13T20:18:48.526Z,102611.76
2018-11-13T20:21:18.383Z,102618.39
2018-11-13T20:23:48.316Z,102624.66
2018-11-13T20:26:18.255Z,102626.63
2018-11-13T20:28:48.071Z,102627.91
2018-11-13T20:31:18.001Z,102627.91
2018-11-13T20:33:47.818Z,102625.48
2018-11-13T20:36:17.920Z,102631.20
2018-11-13T20:38:48.406Z,102631.78
2018-11-13T20:41:18.356Z,102632.23
2018-11-13T20:43:48.347Z,102634.34
2018-11-13T20:46:18.061Z,102634.14
2018-11-13T20:48:48.128Z,102634.80
2018-11-13T20:51:17.985Z,102640.22
2018-11-13T20:53:47.809Z,102635.48
2018-11-13T20:56:17.591Z,102630.57
2018-11-13T20:58:47.390Z,102638.59
2018-11-13T21:01:17.144Z,102639.28
2018-11-13T21:03:47.061Z,102631.01
2018-11-13T21:06:16.982Z,102636.82
2018-11-13T21:08:47.426Z,102630.06
2018-11-13T21:11:16.864Z,102640.31
2018-11-13T21:13:46.737Z,102648.30
2018-11-13T21:16:16.592Z,102642.73
2018-11-13T21:18:46.510Z,102647.25
2018-11-13T21:21:16.797Z,102646.87
2018-11-13T21:23:47.134Z,102647.25
2018-11-13T21:26:17.149Z,102653.87
2018-11-13T21:28:46.955Z,102657.91
2018-11-13T21:31:16.988Z,102662.92
2018-11-13T21:33:46.972Z,102662.23
2018-11-13T21:36:16.884Z,102666.47
2018-11-13T21:38:46.642Z,102667.22
2018-11-13T21:41:16.616Z,102663.98
2018-11-13T21:43:46.352Z,102661.90
2018-11-13T21:46:16.948Z,102667.76
2018-11-13T21:48:47.469Z,102665.16
2018-11-13T21:51:17.242Z,102664.53
2018-11-13T21:53:47.165Z,102666.58
2018-11-13T21:56:16.967Z,102669.40
2018-11-13T21:58:46.795Z,102672.69
2018-11-13T22:01:16.772Z,102678.18
2018-11-13T22:03:46.851Z,102673.84
2018-11-13T22:06:16.707Z,102679.39
2018-11-13T22:08:46.671Z,102681.89
2018-11-13T22:11:16.545Z,102673.84
2018-11-13T22:13:46.496Z,102681.55
2018-11-13T22:16:16.556Z,102686.55
2018-11-13T22:18:46.402Z,102690.55
2018-11-13T22:21:16.596Z,102691.22
2018-11-13T22:23:46.399Z,102690.12
2018-11-13T22:26:16.200Z,102689.84
2018-11-13T22:28:46.293Z,102687.92
2018-11-13T22:31:16.323Z,102688.08
2018-11-13T22:33:46.055Z,102683.50
2018-11-13T22:36:15.958Z,102680.61
2018-11-13T22:38:45.980Z,102691.25
2018-11-13T22:41:16.489Z,102691.20
2018-11-13T22:43:46.131Z,102691.20
2018-11-13T22:46:15.901Z,102687.80
2018-11-13T22:48:45.748Z,102687.21
2018-11-13T22:51:15.606Z,102692.77
2018-11-13T22:53:45.355Z,102691.31
2018-11-13T22:56:15.435Z,102688.88
2018-11-13T22:58:45.359Z,102688.58
2018-11-13T23:01:15.228Z,102693.89
2018-11-13T23:03:44.881Z,102697.88
2018-11-13T23:06:14.665Z,102697.60
2018-11-13T23:08:44.446Z,102697.88
2018-11-13T23:11:15.492Z,102699.95
2018-11-13T23:13:45.244Z,102709.72
2018-11-13T23:16:15.540Z,102712.38
2018-11-13T23:18:45.531Z,102713.89
2018-11-13T23:21:15.560Z,102717.93
2018-11-13T23:23:45.486Z,102718.67
2018-11-13T23:26:15.346Z,102712.56
2018-11-13T23:28:45.058Z,102720.23
2018-11-13T23:31:14.775Z,102717.93
2018-11-13T23:33:44.720Z,102718.57
2018-11-13T23:36:14.687Z,102726.40
2018-11-13T23:38:44.607Z,102724.02
2018-11-13T23:41:14.592Z,102718.93
2018-11-13T23:43:44.466Z,102717.93
2018-11-13T23:46:14.409Z,102720.73
2018-11-13T23:48:44.232Z,102714.27
2018-11-13T23:51:14.214Z,102712.13
2018-11-13T23:53:44.076Z,102720.33
2018-11-13T23:56:13.832Z,102723.68
2018-11-13T23:58:43.600Z,102715.70
